sensor_id;sensor_type;location;lat;lon;timestamp;temperature;humidity
69895;DHT22;57172;52.034;5.090;2023-04-30T00:02:14;10.30;64.20
69895;DHT22;57172;52.034;5.090;2023-04-30T00:04:41;10.30;64.30
69895;DHT22;57172;52.034;5.090;2023-04-30T00:07:07;10.20;64.30
69895;DHT22;57172;52.034;5.090;2023-04-30T00:09:34;10.20;64.40
69895;DHT22;57172;52.034;5.090;2023-04-30T00:12:02;10.20;64.50
69895;DHT22;57172;52.034;5.090;2023-04-30T00:14:29;10.10;64.50
69895;DHT22;57172;52.034;5.090;2023-04-30T00:16:56;10.10;64.60
69895;DHT22;57172;52.034;5.090;2023-04-30T00:19:23;10.10;64.80
69895;DHT22;57172;52.034;5.090;2023-04-30T00:21:49;10.00;64.90
69895;DHT22;57172;52.034;5.090;2023-04-30T00:24:16;10.00;65.10
69895;DHT22;57172;52.034;5.090;2023-04-30T00:26:43;9.90;65.30
69895;DHT22;57172;52.034;5.090;2023-04-30T00:29:10;9.90;65.40
69895;DHT22;57172;52.034;5.090;2023-04-30T00:31:38;9.90;65.40
69895;DHT22;57172;52.034;5.090;2023-04-30T00:34:05;9.90;65.40
69895;DHT22;57172;52.034;5.090;2023-04-30T00:36:32;9.90;65.50
69895;DHT22;57172;52.034;5.090;2023-04-30T00:38:58;9.90;65.60
69895;DHT22;57172;52.034;5.090;2023-04-30T00:41:26;9.90;65.70
69895;DHT22;57172;52.034;5.090;2023-04-30T00:43:54;9.80;65.80
69895;DHT22;57172;52.034;5.090;2023-04-30T00:46:21;9.80;66.00
69895;DHT22;57172;52.034;5.090;2023-04-30T00:48:48;9.70;66.00
69895;DHT22;57172;52.034;5.090;2023-04-30T00:51:15;9.70;66.20
69895;DHT22;57172;52.034;5.090;2023-04-30T00:53:43;9.70;66.20
69895;DHT22;57172;52.034;5.090;2023-04-30T00:56:10;9.70;66.30
69895;DHT22;57172;52.034;5.090;2023-04-30T00:58:38;9.60;66.40
69895;DHT22;57172;52.034;5.090;2023-04-30T01:01:06;9.60;66.40
69895;DHT22;57172;52.034;5.090;2023-04-30T01:03:33;9.60;66.50
69895;DHT22;57172;52.034;5.090;2023-04-30T01:06:02;9.60;66.60
69895;DHT22;57172;52.034;5.090;2023-04-30T01:08:31;9.50;66.70
69895;DHT22;57172;52.034;5.090;2023-04-30T01:11:11;9.40;67.00
69895;DHT22;57172;52.034;5.090;2023-04-30T01:14:02;9.40;67.10
69895;DHT22;57172;52.034;5.090;2023-04-30T01:16:35;9.30;67.30
69895;DHT22;57172;52.034;5.090;2023-04-30T01:19:09;9.30;67.30
69895;DHT22;57172;52.034;5.090;2023-04-30T01:21:46;9.30;67.40
69895;DHT22;57172;52.034;5.090;2023-04-30T01:27:29;9.30;67.50
69895;DHT22;57172;52.034;5.090;2023-04-30T01:29:58;9.20;67.60
69895;DHT22;57172;52.034;5.090;2023-04-30T01:32:27;9.20;67.50
69895;DHT22;57172;52.034;5.090;2023-04-30T01:34:54;9.20;67.60
69895;DHT22;57172;52.034;5.090;2023-04-30T01:37:23;9.20;67.60
69895;DHT22;57172;52.034;5.090;2023-04-30T01:40:18;9.20;67.70
69895;DHT22;57172;52.034;5.090;2023-04-30T01:43:04;9.20;67.90
69895;DHT22;57172;52.034;5.090;2023-04-30T01:51:15;9.10;67.70
69895;DHT22;57172;52.034;5.090;2023-04-30T01:53:45;9.00;67.90
69895;DHT22;57172;52.034;5.090;2023-04-30T01:56:31;9.00;67.90
69895;DHT22;57172;52.034;5.090;2023-04-30T01:59:01;9.00;68.10
69895;DHT22;57172;52.034;5.090;2023-04-30T02:01:33;9.00;68.10
69895;DHT22;57172;52.034;5.090;2023-04-30T02:04:00;8.90;68.20
69895;DHT22;57172;52.034;5.090;2023-04-30T02:06:27;8.90;68.20
69895;DHT22;57172;52.034;5.090;2023-04-30T02:08:56;8.90;68.30
69895;DHT22;57172;52.034;5.090;2023-04-30T02:11:28;8.80;68.50
69895;DHT22;57172;52.034;5.090;2023-04-30T02:13:55;8.80;68.60
69895;DHT22;57172;52.034;5.090;2023-04-30T02:16:31;8.70;68.80
69895;DHT22;57172;52.034;5.090;2023-04-30T02:19:00;8.70;69.10
69895;DHT22;57172;52.034;5.090;2023-04-30T02:21:27;8.70;69.30
69895;DHT22;57172;52.034;5.090;2023-04-30T02:23:54;8.60;69.60
69895;DHT22;57172;52.034;5.090;2023-04-30T02:26:21;8.60;69.70
69895;DHT22;57172;52.034;5.090;2023-04-30T02:28:48;8.50;70.00
69895;DHT22;57172;52.034;5.090;2023-04-30T02:31:15;8.50;70.10
69895;DHT22;57172;52.034;5.090;2023-04-30T02:33:44;8.50;70.20
69895;DHT22;57172;52.034;5.090;2023-04-30T02:36:11;8.50;70.40
69895;DHT22;57172;52.034;5.090;2023-04-30T02:38:38;8.40;70.60
69895;DHT22;57172;52.034;5.090;2023-04-30T02:41:05;8.40;70.70
69895;DHT22;57172;52.034;5.090;2023-04-30T02:43:32;8.30;70.80
69895;DHT22;57172;52.034;5.090;2023-04-30T02:45:59;8.30;70.90
69895;DHT22;57172;52.034;5.090;2023-04-30T02:48:26;8.20;71.00
69895;DHT22;57172;52.034;5.090;2023-04-30T02:50:53;8.20;71.00
69895;DHT22;57172;52.034;5.090;2023-04-30T02:53:19;8.20;71.10
69895;DHT22;57172;52.034;5.090;2023-04-30T02:55:46;8.20;71.30
69895;DHT22;57172;52.034;5.090;2023-04-30T02:58:13;8.20;71.30
69895;DHT22;57172;52.034;5.090;2023-04-30T03:00:40;8.20;71.50
69895;DHT22;57172;52.034;5.090;2023-04-30T03:03:07;8.10;71.70
69895;DHT22;57172;52.034;5.090;2023-04-30T03:05:34;8.10;71.60
69895;DHT22;57172;52.034;5.090;2023-04-30T03:08:01;8.10;71.50
69895;DHT22;57172;52.034;5.090;2023-04-30T03:10:28;8.10;71.40
69895;DHT22;57172;52.034;5.090;2023-04-30T03:12:55;8.10;71.40
69895;DHT22;57172;52.034;5.090;2023-04-30T03:15:22;8.20;71.30
69895;DHT22;57172;52.034;5.090;2023-04-30T03:17:49;8.10;71.30
69895;DHT22;57172;52.034;5.090;2023-04-30T03:20:16;8.10;71.30
69895;DHT22;57172;52.034;5.090;2023-04-30T03:22:43;8.10;71.40
69895;DHT22;57172;52.034;5.090;2023-04-30T03:25:09;8.00;71.40
69895;DHT22;57172;52.034;5.090;2023-04-30T03:27:37;8.00;71.40
69895;DHT22;57172;52.034;5.090;2023-04-30T03:30:04;8.00;71.50
69895;DHT22;57172;52.034;5.090;2023-04-30T03:32:32;8.00;71.50
69895;DHT22;57172;52.034;5.090;2023-04-30T03:34:59;8.00;71.60
69895;DHT22;57172;52.034;5.090;2023-04-30T03:37:26;7.90;71.70
69895;DHT22;57172;52.034;5.090;2023-04-30T03:39:53;7.90;71.80
69895;DHT22;57172;52.034;5.090;2023-04-30T03:42:20;7.90;71.80
69895;DHT22;57172;52.034;5.090;2023-04-30T03:44:48;7.90;71.90
69895;DHT22;57172;52.034;5.090;2023-04-30T03:47:15;7.90;71.90
69895;DHT22;57172;52.034;5.090;2023-04-30T03:49:42;7.90;71.90
69895;DHT22;57172;52.034;5.090;2023-04-30T03:52:09;7.80;71.90
69895;DHT22;57172;52.034;5.090;2023-04-30T03:54:36;7.80;71.90
69895;DHT22;57172;52.034;5.090;2023-04-30T03:57:04;7.80;72.00
69895;DHT22;57172;52.034;5.090;2023-04-30T03:59:31;7.70;72.10
69895;DHT22;57172;52.034;5.090;2023-04-30T04:01:59;7.70;72.20
69895;DHT22;57172;52.034;5.090;2023-04-30T04:04:28;7.60;72.30
69895;DHT22;57172;52.034;5.090;2023-04-30T04:06:55;7.70;72.30
69895;DHT22;57172;52.034;5.090;2023-04-30T04:09:22;7.70;72.20
69895;DHT22;57172;52.034;5.090;2023-04-30T04:11:49;7.70;72.30
69895;DHT22;57172;52.034;5.090;2023-04-30T04:14:16;7.70;72.30
69895;DHT22;57172;52.034;5.090;2023-04-30T04:16:43;7.60;72.20
69895;DHT22;57172;52.034;5.090;2023-04-30T04:19:10;7.70;72.20
69895;DHT22;57172;52.034;5.090;2023-04-30T04:21:38;7.60;72.30
69895;DHT22;57172;52.034;5.090;2023-04-30T04:24:12;7.60;72.40
69895;DHT22;57172;52.034;5.090;2023-04-30T04:26:39;7.60;72.50
69895;DHT22;57172;52.034;5.090;2023-04-30T04:29:07;7.60;72.60
69895;DHT22;57172;52.034;5.090;2023-04-30T04:31:36;7.70;72.70
69895;DHT22;57172;52.034;5.090;2023-04-30T04:34:04;7.70;72.70
69895;DHT22;57172;52.034;5.090;2023-04-30T04:36:31;7.70;72.70
69895;DHT22;57172;52.034;5.090;2023-04-30T04:39:00;7.70;72.70
69895;DHT22;57172;52.034;5.090;2023-04-30T04:41:31;7.70;72.70
69895;DHT22;57172;52.034;5.090;2023-04-30T04:43:59;7.80;72.70
69895;DHT22;57172;52.034;5.090;2023-04-30T04:46:28;7.80;72.80
69895;DHT22;57172;52.034;5.090;2023-04-30T04:48:56;7.80;72.80
69895;DHT22;57172;52.034;5.090;2023-04-30T04:51:23;7.80;72.80
69895;DHT22;57172;52.034;5.090;2023-04-30T04:53:50;7.80;72.70
69895;DHT22;57172;52.034;5.090;2023-04-30T04:56:18;7.80;72.80
69895;DHT22;57172;52.034;5.090;2023-04-30T04:58:44;7.80;73.00
69895;DHT22;57172;52.034;5.090;2023-04-30T05:01:12;7.90;73.20
69895;DHT22;57172;52.034;5.090;2023-04-30T05:03:39;7.90;73.30
69895;DHT22;57172;52.034;5.090;2023-04-30T05:06:06;7.90;73.40
69895;DHT22;57172;52.034;5.090;2023-04-30T05:08:33;7.90;73.30
69895;DHT22;57172;52.034;5.090;2023-04-30T05:11:00;8.00;73.60
69895;DHT22;57172;52.034;5.090;2023-04-30T05:13:27;8.00;73.60
69895;DHT22;57172;52.034;5.090;2023-04-30T05:15:54;8.10;73.60
69895;DHT22;57172;52.034;5.090;2023-04-30T05:18:21;8.10;73.80
69895;DHT22;57172;52.034;5.090;2023-04-30T05:20:48;8.10;73.90
69895;DHT22;57172;52.034;5.090;2023-04-30T05:23:15;8.10;74.00
69895;DHT22;57172;52.034;5.090;2023-04-30T05:25:42;8.20;73.90
69895;DHT22;57172;52.034;5.090;2023-04-30T05:28:09;8.20;74.00
69895;DHT22;57172;52.034;5.090;2023-04-30T05:30:36;8.30;74.00
69895;DHT22;57172;52.034;5.090;2023-04-30T05:33:03;8.30;74.00
69895;DHT22;57172;52.034;5.090;2023-04-30T05:35:30;8.40;73.90
69895;DHT22;57172;52.034;5.090;2023-04-30T05:37:57;8.40;73.80
69895;DHT22;57172;52.034;5.090;2023-04-30T05:40:24;8.50;73.80
69895;DHT22;57172;52.034;5.090;2023-04-30T05:42:51;8.50;73.70
69895;DHT22;57172;52.034;5.090;2023-04-30T05:45:18;8.60;73.80
69895;DHT22;57172;52.034;5.090;2023-04-30T05:47:44;8.60;73.80
69895;DHT22;57172;52.034;5.090;2023-04-30T05:50:11;8.70;73.70
69895;DHT22;57172;52.034;5.090;2023-04-30T05:52:38;8.70;73.70
69895;DHT22;57172;52.034;5.090;2023-04-30T05:55:06;8.80;73.70
69895;DHT22;57172;52.034;5.090;2023-04-30T05:57:33;8.80;73.60
69895;DHT22;57172;52.034;5.090;2023-04-30T06:00:01;8.90;73.60
69895;DHT22;57172;52.034;5.090;2023-04-30T06:02:37;8.90;73.60
69895;DHT22;57172;52.034;5.090;2023-04-30T06:05:06;9.00;73.50
69895;DHT22;57172;52.034;5.090;2023-04-30T06:07:34;9.00;73.60
69895;DHT22;57172;52.034;5.090;2023-04-30T06:10:01;9.10;73.50
69895;DHT22;57172;52.034;5.090;2023-04-30T06:12:28;9.10;73.50
69895;DHT22;57172;52.034;5.090;2023-04-30T06:14:55;9.20;73.50
69895;DHT22;57172;52.034;5.090;2023-04-30T06:17:23;9.20;73.60
69895;DHT22;57172;52.034;5.090;2023-04-30T06:19:50;9.30;73.60
69895;DHT22;57172;52.034;5.090;2023-04-30T06:22:17;9.40;73.50
69895;DHT22;57172;52.034;5.090;2023-04-30T06:24:43;9.50;73.50
69895;DHT22;57172;52.034;5.090;2023-04-30T06:27:11;9.60;73.40
69895;DHT22;57172;52.034;5.090;2023-04-30T06:29:38;9.60;73.40
69895;DHT22;57172;52.034;5.090;2023-04-30T06:32:05;9.70;73.30
69895;DHT22;57172;52.034;5.090;2023-04-30T06:34:34;9.80;73.30
69895;DHT22;57172;52.034;5.090;2023-04-30T06:37:02;9.90;73.20
69895;DHT22;57172;52.034;5.090;2023-04-30T06:39:29;10.00;72.90
69895;DHT22;57172;52.034;5.090;2023-04-30T06:41:56;10.10;72.80
69895;DHT22;57172;52.034;5.090;2023-04-30T06:44:23;10.10;72.90
69895;DHT22;57172;52.034;5.090;2023-04-30T06:46:51;10.30;72.80
69895;DHT22;57172;52.034;5.090;2023-04-30T06:49:17;10.30;72.60
69895;DHT22;57172;52.034;5.090;2023-04-30T06:51:44;10.40;72.30
69895;DHT22;57172;52.034;5.090;2023-04-30T06:54:11;10.40;72.30
69895;DHT22;57172;52.034;5.090;2023-04-30T06:56:38;10.50;72.20
69895;DHT22;57172;52.034;5.090;2023-04-30T06:59:05;10.50;71.90
69895;DHT22;57172;52.034;5.090;2023-04-30T07:01:32;10.60;71.90
69895;DHT22;57172;52.034;5.090;2023-04-30T07:04:00;10.60;71.80
69895;DHT22;57172;52.034;5.090;2023-04-30T07:06:28;10.70;71.60
69895;DHT22;57172;52.034;5.090;2023-04-30T07:09:01;10.80;71.60
69895;DHT22;57172;52.034;5.090;2023-04-30T07:11:27;10.90;71.60
69895;DHT22;57172;52.034;5.090;2023-04-30T07:13:54;10.90;71.60
69895;DHT22;57172;52.034;5.090;2023-04-30T07:16:24;11.00;71.30
69895;DHT22;57172;52.034;5.090;2023-04-30T07:18:53;11.20;71.30
69895;DHT22;57172;52.034;5.090;2023-04-30T07:21:20;11.20;71.30
69895;DHT22;57172;52.034;5.090;2023-04-30T07:23:47;11.30;71.20
69895;DHT22;57172;52.034;5.090;2023-04-30T07:26:17;11.40;71.00
69895;DHT22;57172;52.034;5.090;2023-04-30T07:28:46;11.50;70.70
69895;DHT22;57172;52.034;5.090;2023-04-30T07:31:14;11.60;70.50
69895;DHT22;57172;52.034;5.090;2023-04-30T07:33:40;11.70;70.40
69895;DHT22;57172;52.034;5.090;2023-04-30T07:36:08;11.80;70.40
69895;DHT22;57172;52.034;5.090;2023-04-30T07:38:35;11.90;69.80
69895;DHT22;57172;52.034;5.090;2023-04-30T07:41:02;11.90;69.60
69895;DHT22;57172;52.034;5.090;2023-04-30T07:43:29;12.10;69.60
69895;DHT22;57172;52.034;5.090;2023-04-30T07:45:57;12.10;69.30
69895;DHT22;57172;52.034;5.090;2023-04-30T07:48:25;12.20;69.20
69895;DHT22;57172;52.034;5.090;2023-04-30T07:50:51;12.40;69.10
69895;DHT22;57172;52.034;5.090;2023-04-30T07:53:18;12.50;68.90
69895;DHT22;57172;52.034;5.090;2023-04-30T07:55:45;12.60;68.30
69895;DHT22;57172;52.034;5.090;2023-04-30T07:58:13;12.70;68.20
69895;DHT22;57172;52.034;5.090;2023-04-30T08:00:40;12.90;68.40
69895;DHT22;57172;52.034;5.090;2023-04-30T08:03:06;13.00;68.10
69895;DHT22;57172;52.034;5.090;2023-04-30T08:05:34;13.10;67.70
69895;DHT22;57172;52.034;5.090;2023-04-30T08:08:00;13.20;67.30
69895;DHT22;57172;52.034;5.090;2023-04-30T08:10:27;13.30;67.20
69895;DHT22;57172;52.034;5.090;2023-04-30T08:12:54;13.60;68.20
69895;DHT22;57172;52.034;5.090;2023-04-30T08:15:21;14.10;69.70
69895;DHT22;57172;52.034;5.090;2023-04-30T08:17:51;14.70;69.70
69895;DHT22;57172;52.034;5.090;2023-04-30T08:20:18;15.40;67.40
69895;DHT22;57172;52.034;5.090;2023-04-30T08:22:45;16.00;66.80
69895;DHT22;57172;52.034;5.090;2023-04-30T08:25:13;16.70;66.10
69895;DHT22;57172;52.034;5.090;2023-04-30T08:27:39;17.50;62.90
69895;DHT22;57172;52.034;5.090;2023-04-30T08:30:07;18.00;62.10
69895;DHT22;57172;52.034;5.090;2023-04-30T08:32:35;18.70;61.50
69895;DHT22;57172;52.034;5.090;2023-04-30T08:35:03;19.50;59.00
69895;DHT22;57172;52.034;5.090;2023-04-30T08:37:30;20.20;57.00
69895;DHT22;57172;52.034;5.090;2023-04-30T08:39:57;20.90;54.80
69895;DHT22;57172;52.034;5.090;2023-04-30T08:42:29;21.20;53.60
69895;DHT22;57172;52.034;5.090;2023-04-30T08:44:59;21.70;51.70
69895;DHT22;57172;52.034;5.090;2023-04-30T08:47:27;22.20;50.40
69895;DHT22;57172;52.034;5.090;2023-04-30T08:49:54;22.60;49.50
69895;DHT22;57172;52.034;5.090;2023-04-30T08:52:21;23.00;48.30
69895;DHT22;57172;52.034;5.090;2023-04-30T08:54:49;23.30;46.80
69895;DHT22;57172;52.034;5.090;2023-04-30T08:57:17;23.60;46.70
69895;DHT22;57172;52.034;5.090;2023-04-30T08:59:44;23.80;45.90
69895;DHT22;57172;52.034;5.090;2023-04-30T09:02:14;23.80;45.60
69895;DHT22;57172;52.034;5.090;2023-04-30T09:04:41;23.80;45.40
69895;DHT22;57172;52.034;5.090;2023-04-30T09:07:08;24.20;44.50
69895;DHT22;57172;52.034;5.090;2023-04-30T09:09:38;24.60;43.70
69895;DHT22;57172;52.034;5.090;2023-04-30T09:14:57;25.40;42.10
69895;DHT22;57172;52.034;5.090;2023-04-30T09:17:25;25.90;40.90
69895;DHT22;57172;52.034;5.090;2023-04-30T09:19:52;26.20;40.00
69895;DHT22;57172;52.034;5.090;2023-04-30T09:22:22;26.00;39.40
69895;DHT22;57172;52.034;5.090;2023-04-30T09:24:50;26.10;39.90
69895;DHT22;57172;52.034;5.090;2023-04-30T09:27:18;26.50;39.30
69895;DHT22;57172;52.034;5.090;2023-04-30T09:29:45;26.80;39.40
69895;DHT22;57172;52.034;5.090;2023-04-30T09:32:12;27.10;38.20
69895;DHT22;57172;52.034;5.090;2023-04-30T09:34:39;27.10;38.40
69895;DHT22;57172;52.034;5.090;2023-04-30T09:37:07;27.20;37.90
69895;DHT22;57172;52.034;5.090;2023-04-30T09:39:45;27.40;38.00
69895;DHT22;57172;52.034;5.090;2023-04-30T09:42:12;27.30;37.20
69895;DHT22;57172;52.034;5.090;2023-04-30T09:44:40;27.40;38.00
69895;DHT22;57172;52.034;5.090;2023-04-30T09:47:12;27.90;37.10
69895;DHT22;57172;52.034;5.090;2023-04-30T09:49:42;28.50;36.50
69895;DHT22;57172;52.034;5.090;2023-04-30T09:52:10;28.90;36.00
69895;DHT22;57172;52.034;5.090;2023-04-30T09:54:38;29.30;34.40
69895;DHT22;57172;52.034;5.090;2023-04-30T09:57:09;29.20;34.10
69895;DHT22;57172;52.034;5.090;2023-04-30T09:59:37;29.10;34.70
69895;DHT22;57172;52.034;5.090;2023-04-30T10:02:09;29.10;35.00
69895;DHT22;57172;52.034;5.090;2023-04-30T10:04:38;29.00;35.30
69895;DHT22;57172;52.034;5.090;2023-04-30T10:10:02;29.40;35.50
69895;DHT22;57172;52.034;5.090;2023-04-30T10:12:59;29.90;34.00
69895;DHT22;57172;52.034;5.090;2023-04-30T10:15:27;30.30;33.80
69895;DHT22;57172;52.034;5.090;2023-04-30T10:17:59;30.90;33.40
69895;DHT22;57172;52.034;5.090;2023-04-30T10:20:28;31.20;32.60
69895;DHT22;57172;52.034;5.090;2023-04-30T10:22:56;31.40;32.40
69895;DHT22;57172;52.034;5.090;2023-04-30T10:25:24;31.50;32.30
69895;DHT22;57172;52.034;5.090;2023-04-30T10:27:52;31.70;31.90
69895;DHT22;57172;52.034;5.090;2023-04-30T10:30:21;31.80;31.80
69895;DHT22;57172;52.034;5.090;2023-04-30T10:32:54;31.90;31.40
69895;DHT22;57172;52.034;5.090;2023-04-30T10:35:30;32.00;31.40
69895;DHT22;57172;52.034;5.090;2023-04-30T10:38:21;32.20;31.20
69895;DHT22;57172;52.034;5.090;2023-04-30T10:40:48;32.30;30.80
69895;DHT22;57172;52.034;5.090;2023-04-30T10:43:18;32.00;31.10
69895;DHT22;57172;52.034;5.090;2023-04-30T10:45:46;31.80;31.40
69895;DHT22;57172;52.034;5.090;2023-04-30T10:48:14;32.10;30.90
69895;DHT22;57172;52.034;5.090;2023-04-30T10:50:44;32.50;30.90
69895;DHT22;57172;52.034;5.090;2023-04-30T10:53:15;32.80;30.30
69895;DHT22;57172;52.034;5.090;2023-04-30T10:58:29;33.00;29.50
69895;DHT22;57172;52.034;5.090;2023-04-30T11:01:06;32.70;29.90
69895;DHT22;57172;52.034;5.090;2023-04-30T11:03:35;32.50;30.10
69895;DHT22;57172;52.034;5.090;2023-04-30T11:06:11;32.70;29.60
69895;DHT22;57172;52.034;5.090;2023-04-30T11:08:41;33.00;29.60
69895;DHT22;57172;52.034;5.090;2023-04-30T11:11:09;32.90;30.00
69895;DHT22;57172;52.034;5.090;2023-04-30T11:13:46;32.90;30.20
69895;DHT22;57172;52.034;5.090;2023-04-30T11:16:16;33.00;29.80
69895;DHT22;57172;52.034;5.090;2023-04-30T11:18:46;32.80;30.00
69895;DHT22;57172;52.034;5.090;2023-04-30T11:21:13;32.60;29.80
69895;DHT22;57172;52.034;5.090;2023-04-30T11:23:41;32.30;29.70
69895;DHT22;57172;52.034;5.090;2023-04-30T11:26:09;32.20;30.30
69895;DHT22;57172;52.034;5.090;2023-04-30T11:28:37;32.60;30.00
69895;DHT22;57172;52.034;5.090;2023-04-30T11:31:04;33.00;29.50
69895;DHT22;57172;52.034;5.090;2023-04-30T11:33:32;33.30;29.10
69895;DHT22;57172;52.034;5.090;2023-04-30T11:36:00;33.70;28.80
69895;DHT22;57172;52.034;5.090;2023-04-30T11:40:59;34.00;28.20
69895;DHT22;57172;52.034;5.090;2023-04-30T11:43:30;33.60;28.10
69895;DHT22;57172;52.034;5.090;2023-04-30T11:46:16;33.30;28.60
69895;DHT22;57172;52.034;5.090;2023-04-30T11:48:45;32.90;28.40
69895;DHT22;57172;52.034;5.090;2023-04-30T11:51:20;32.40;29.10
69895;DHT22;57172;52.034;5.090;2023-04-30T11:53:49;32.30;29.50
69895;DHT22;57172;52.034;5.090;2023-04-30T11:56:20;32.40;29.50
69895;DHT22;57172;52.034;5.090;2023-04-30T11:58:49;32.40;29.30
69895;DHT22;57172;52.034;5.090;2023-04-30T12:01:16;31.90;29.10
69895;DHT22;57172;52.034;5.090;2023-04-30T12:03:46;31.20;29.60
69895;DHT22;57172;52.034;5.090;2023-04-30T12:06:24;30.90;30.60
69895;DHT22;57172;52.034;5.090;2023-04-30T12:08:53;30.90;30.40
69895;DHT22;57172;52.034;5.090;2023-04-30T12:11:22;30.70;30.50
69895;DHT22;57172;52.034;5.090;2023-04-30T12:13:52;30.80;31.30
69895;DHT22;57172;52.034;5.090;2023-04-30T12:16:19;31.00;30.60
69895;DHT22;57172;52.034;5.090;2023-04-30T12:18:47;30.90;30.30
69895;DHT22;57172;52.034;5.090;2023-04-30T12:21:17;30.90;30.70
69895;DHT22;57172;52.034;5.090;2023-04-30T12:23:44;31.30;30.60
69895;DHT22;57172;52.034;5.090;2023-04-30T12:26:11;31.60;30.00
69895;DHT22;57172;52.034;5.090;2023-04-30T12:28:39;31.90;29.90
69895;DHT22;57172;52.034;5.090;2023-04-30T12:31:06;32.40;29.90
69895;DHT22;57172;52.034;5.090;2023-04-30T12:33:34;33.10;28.60
69895;DHT22;57172;52.034;5.090;2023-04-30T12:36:02;33.80;28.00
69895;DHT22;57172;52.034;5.090;2023-04-30T12:38:29;34.20;27.70
69895;DHT22;57172;52.034;5.090;2023-04-30T12:40:56;34.20;27.40
69895;DHT22;57172;52.034;5.090;2023-04-30T12:43:23;33.90;27.50
69895;DHT22;57172;52.034;5.090;2023-04-30T12:45:52;33.20;27.60
69895;DHT22;57172;52.034;5.090;2023-04-30T12:48:21;32.20;28.10
69895;DHT22;57172;52.034;5.090;2023-04-30T12:50:58;31.40;29.00
69895;DHT22;57172;52.034;5.090;2023-04-30T12:53:25;30.90;29.40
69895;DHT22;57172;52.034;5.090;2023-04-30T12:56:13;30.40;29.90
69895;DHT22;57172;52.034;5.090;2023-04-30T12:58:43;30.50;30.10
69895;DHT22;57172;52.034;5.090;2023-04-30T13:01:20;30.70;30.40
69895;DHT22;57172;52.034;5.090;2023-04-30T13:03:49;31.10;30.60
69895;DHT22;57172;52.034;5.090;2023-04-30T13:06:16;31.80;30.10
69895;DHT22;57172;52.034;5.090;2023-04-30T13:08:44;32.50;29.30
69895;DHT22;57172;52.034;5.090;2023-04-30T13:11:27;33.10;28.90
69895;DHT22;57172;52.034;5.090;2023-04-30T13:13:54;33.30;28.00
69895;DHT22;57172;52.034;5.090;2023-04-30T13:16:21;33.60;28.10
69895;DHT22;57172;52.034;5.090;2023-04-30T13:18:51;33.90;28.10
69895;DHT22;57172;52.034;5.090;2023-04-30T13:21:18;34.30;27.60
69895;DHT22;57172;52.034;5.090;2023-04-30T13:23:45;34.60;27.20
69895;DHT22;57172;52.034;5.090;2023-04-30T13:26:19;34.30;26.50
69895;DHT22;57172;52.034;5.090;2023-04-30T13:28:47;33.90;27.30
69895;DHT22;57172;52.034;5.090;2023-04-30T13:31:14;33.80;27.10
69895;DHT22;57172;52.034;5.090;2023-04-30T13:33:41;33.50;27.20
69895;DHT22;57172;52.034;5.090;2023-04-30T13:36:07;33.30;27.70
69895;DHT22;57172;52.034;5.090;2023-04-30T13:38:34;32.90;27.50
69895;DHT22;57172;52.034;5.090;2023-04-30T13:41:01;32.30;28.00
69895;DHT22;57172;52.034;5.090;2023-04-30T13:43:28;32.20;28.60
69895;DHT22;57172;52.034;5.090;2023-04-30T13:45:55;32.50;28.30
69895;DHT22;57172;52.034;5.090;2023-04-30T13:48:22;32.80;28.20
69895;DHT22;57172;52.034;5.090;2023-04-30T13:50:49;33.00;28.20
69895;DHT22;57172;52.034;5.090;2023-04-30T13:53:16;33.20;27.40
69895;DHT22;57172;52.034;5.090;2023-04-30T13:55:42;33.40;27.70
69895;DHT22;57172;52.034;5.090;2023-04-30T13:58:09;33.60;27.50
69895;DHT22;57172;52.034;5.090;2023-04-30T14:00:36;33.40;26.80
69895;DHT22;57172;52.034;5.090;2023-04-30T14:03:03;33.20;27.00
69895;DHT22;57172;52.034;5.090;2023-04-30T14:05:34;33.30;27.50
69895;DHT22;57172;52.034;5.090;2023-04-30T14:08:01;33.50;27.40
69895;DHT22;57172;52.034;5.090;2023-04-30T14:10:28;33.30;26.70
69895;DHT22;57172;52.034;5.090;2023-04-30T14:12:55;32.80;27.10
69895;DHT22;57172;52.034;5.090;2023-04-30T14:15:22;32.20;27.50
69895;DHT22;57172;52.034;5.090;2023-04-30T14:17:49;31.80;28.10
69895;DHT22;57172;52.034;5.090;2023-04-30T14:20:17;31.60;28.40
69895;DHT22;57172;52.034;5.090;2023-04-30T14:22:44;31.40;28.30
69895;DHT22;57172;52.034;5.090;2023-04-30T14:25:11;31.30;28.60
69895;DHT22;57172;52.034;5.090;2023-04-30T14:27:39;31.20;28.70
69895;DHT22;57172;52.034;5.090;2023-04-30T14:30:06;31.20;28.70
69895;DHT22;57172;52.034;5.090;2023-04-30T14:32:33;31.20;28.80
69895;DHT22;57172;52.034;5.090;2023-04-30T14:35:00;31.40;29.10
69895;DHT22;57172;52.034;5.090;2023-04-30T14:37:28;31.60;29.00
69895;DHT22;57172;52.034;5.090;2023-04-30T14:39:55;31.80;28.70
69895;DHT22;57172;52.034;5.090;2023-04-30T14:42:22;31.90;28.20
69895;DHT22;57172;52.034;5.090;2023-04-30T14:44:49;32.00;28.10
69895;DHT22;57172;52.034;5.090;2023-04-30T14:47:16;31.80;28.40
69895;DHT22;57172;52.034;5.090;2023-04-30T14:49:43;31.70;28.20
69895;DHT22;57172;52.034;5.090;2023-04-30T14:52:10;31.60;28.60
69895;DHT22;57172;52.034;5.090;2023-04-30T14:54:36;31.60;28.50
69895;DHT22;57172;52.034;5.090;2023-04-30T14:57:05;31.40;28.50
69895;DHT22;57172;52.034;5.090;2023-04-30T14:59:32;31.10;28.30
69895;DHT22;57172;52.034;5.090;2023-04-30T15:02:00;30.50;28.30
69895;DHT22;57172;52.034;5.090;2023-04-30T15:04:27;29.50;29.00
69895;DHT22;57172;52.034;5.090;2023-04-30T15:06:54;28.70;29.50
69895;DHT22;57172;52.034;5.090;2023-04-30T15:09:21;28.00;30.00
69895;DHT22;57172;52.034;5.090;2023-04-30T15:11:48;27.50;30.70
69895;DHT22;57172;52.034;5.090;2023-04-30T15:14:15;27.20;31.20
69895;DHT22;57172;52.034;5.090;2023-04-30T15:16:42;27.20;31.80
69895;DHT22;57172;52.034;5.090;2023-04-30T15:19:09;27.50;32.30
69895;DHT22;57172;52.034;5.090;2023-04-30T15:21:36;27.90;31.50
69895;DHT22;57172;52.034;5.090;2023-04-30T15:24:03;28.30;31.40
69895;DHT22;57172;52.034;5.090;2023-04-30T15:26:30;28.40;30.90
69895;DHT22;57172;52.034;5.090;2023-04-30T15:28:57;28.60;30.90
69895;DHT22;57172;52.034;5.090;2023-04-30T15:31:34;28.80;30.80
69895;DHT22;57172;52.034;5.090;2023-04-30T15:34:01;28.90;30.60
69895;DHT22;57172;52.034;5.090;2023-04-30T15:36:29;28.90;30.00
69895;DHT22;57172;52.034;5.090;2023-04-30T15:38:57;28.50;30.10
69895;DHT22;57172;52.034;5.090;2023-04-30T15:41:24;28.00;30.70
69895;DHT22;57172;52.034;5.090;2023-04-30T15:43:51;27.60;31.10
69895;DHT22;57172;52.034;5.090;2023-04-30T15:46:18;27.40;31.70
69895;DHT22;57172;52.034;5.090;2023-04-30T15:48:45;27.10;32.10
69895;DHT22;57172;52.034;5.090;2023-04-30T15:51:12;27.10;32.00
69895;DHT22;57172;52.034;5.090;2023-04-30T15:53:39;26.90;32.10
69895;DHT22;57172;52.034;5.090;2023-04-30T15:56:06;26.60;32.40
69895;DHT22;57172;52.034;5.090;2023-04-30T15:58:34;26.30;32.40
69895;DHT22;57172;52.034;5.090;2023-04-30T16:01:01;26.00;32.90
69895;DHT22;57172;52.034;5.090;2023-04-30T16:03:28;25.80;33.40
69895;DHT22;57172;52.034;5.090;2023-04-30T16:05:55;25.90;33.50